NORTHEAST SUFFOLK  -  Winter Weather Advisory Winter Weather Advisory     Winter Weather Advisory Winter Weather Advisory        NORTHERN NASSAU  -  Winter Weather Advisory Winter Weather Advisory        NORTHWEST SUFFOLK  -  Winter Weather Advisory Winter Weather Advisory     Winter Weather Advisory Winter Weather Advisory        SOUTHEAST SUFFOLK  -  Winter Weather Advisory Winter Weather Advisory     Winter Weather Advisory Winter Weather Advisory        SOUTHERN NASSAU  -  Winter Weather Advisory Winter Weather Advisory        SOUTHWEST SUFFOLK  -  Winter Weather Advisory Winter Weather Advisory     Winter Weather Advisory Winter Weather Advisory      

Active alerts

Northern Nassau
  Details for Northern Nassau Winter Weather Advisory
Southern Nassau
  Details for Southern Nassau Winter Weather Advisory
Northwest Suffolk
  Details for Northwest Suffolk Winter Weather Advisory  +1 additional alert
Southwest Suffolk
  Details for Southwest Suffolk Winter Weather Advisory  +1 additional alert
Northeast Suffolk
  Details for Northeast Suffolk Winter Weather Advisory  +1 additional alert
Southeast Suffolk
  Details for Southeast Suffolk Winter Weather Advisory  +1 additional alert


WXM80 ListenWXM80 Stop

You find our weather info also at:

UK Metoffice

WeatherCloud

Weather Underground

Northeastern Weather Network

AWEKAS

Citizen Weather Observer Program (CWOP)

HAMweather, WeatherForYou, PWS Weather


Weather Underground History page Text

Daily Summary for October 15, 2016 Units:  English    Metric   Both
« Previous Day
Next Day »
Daily Weekly Monthly Yearly Custom
  High: Low: Average:
Temperature: 64.7 °F 44.6 °F 54.1 °F
Dew Point: 53.3 °F 41.7 °F 47.2 °F
Humidity: 95 % 61 % 78 %
Wind Speed: 6.4 mph 0.0 mph 1.4 mph
Wind Gust: 12.0 mph - -
Wind:- - East
Pressure: 30.43 in 30.29 in -
Precipitation: 0.00 in    
Historical Graphs
 
 
Tabular Data for October 15, 2016
Time Temperature Dew Point Pressure Wind Wind Speed Wind Gust Humidity Rainfall Rate (Hourly)
00:02 53.4 °F 45.3 °F 30.35 in Calm   1.2 mph 74 % 0.00 in
00:07 53.3 °F 45.2 °F 30.35 in North 0.1 mph 1.2 mph 74 % 0.00 in
00:12 53.2 °F 45.5 °F 30.35 in North 1.1 mph 2.3 mph 75 % 0.00 in
00:17 52.9 °F 44.8 °F 30.35 in Calm     74 % 0.00 in
00:22 52.6 °F 44.9 °F 30.35 in Calm     75 % 0.00 in
00:27 52.3 °F 44.6 °F 30.34 in North 0.1 mph 1.2 mph 75 % 0.00 in
00:37 51.3 °F 44.3 °F 30.35 in Calm     77 % 0.00 in
00:43 50.9 °F 43.9 °F 30.35 in North 0.2 mph 1.2 mph 77 % 0.00 in
00:48 50.5 °F 43.9 °F 30.35 in North 0.1 mph 2.3 mph 78 % 0.00 in
00:58 49.7 °F 43.5 °F 30.35 in Calm     79 % 0.00 in
01:03 49.4 °F 43.5 °F 30.35 in North 0.1 mph 1.0 mph 80 % 0.00 in
01:08 49.1 °F 43.2 °F 30.35 in Calm   1.2 mph 80 % 0.00 in
01:13 48.8 °F 43.2 °F 30.35 in Calm     81 % 0.00 in
01:18 48.5 °F 42.9 °F 30.35 in WNW 0.5 mph 2.0 mph 81 % 0.00 in
01:23 48.2 °F 43.0 °F 30.35 in Calm   1.2 mph 82 % 0.00 in
01:28 48.0 °F 43.1 °F 30.34 in WNW 0.3 mph 1.2 mph 83 % 0.00 in
01:33 47.8 °F 42.9 °F 30.34 in WNW 0.9 mph 1.2 mph 83 % 0.00 in
01:39 47.5 °F 42.9 °F 30.34 in WNW 0.9 mph 2.3 mph 84 % 0.00 in
01:44 47.3 °F 42.7 °F 30.34 in Calm   1.2 mph 84 % 0.00 in
01:49 47.1 °F 42.5 °F 30.34 in WNW 0.6 mph 1.2 mph 84 % 0.00 in
01:54 47.0 °F 42.7 °F 30.34 in WNW 0.2 mph 1.2 mph 85 % 0.00 in
01:59 46.8 °F 42.5 °F 30.34 in WNW 1.0 mph 2.3 mph 85 % 0.00 in
02:04 46.7 °F 42.7 °F 30.34 in WNW 0.4 mph 1.2 mph 86 % 0.00 in
02:09 46.5 °F 42.8 °F 30.34 in Calm   1.0 mph 87 % 0.00 in
02:19 46.3 °F 42.6 °F 30.34 in Calm     87 % 0.00 in
02:24 46.1 °F 42.4 °F 30.35 in WNW 0.1 mph 1.2 mph 87 % 0.00 in
02:30 46.0 °F 42.3 °F 30.34 in WNW 0.3 mph 2.3 mph 87 % 0.00 in
02:35 45.9 °F 42.2 °F 30.34 in WNW 0.1 mph 1.2 mph 87 % 0.00 in
02:40 45.8 °F 42.2 °F 30.34 in Calm     87 % 0.00 in
02:45 45.6 °F 42.0 °F 30.34 in Calm     87 % 0.00 in
02:50 45.5 °F 42.2 °F 30.34 in Calm     88 % 0.00 in
02:55 45.4 °F 42.1 °F 30.33 in WNW 0.2 mph 1.2 mph 88 % 0.00 in
03:00 45.3 °F 42.0 °F 30.33 in Calm     88 % 0.00 in
03:05 45.2 °F 41.9 °F 30.33 in WNW 0.2 mph 1.2 mph 88 % 0.00 in
03:10 45.0 °F 41.7 °F 30.33 in Calm     88 % 0.00 in
03:15 44.9 °F 41.9 °F 30.33 in Calm     89 % 0.00 in
03:21 44.9 °F 41.9 °F 30.33 in Calm     89 % 0.00 in
03:26 44.8 °F 41.7 °F 30.33 in Calm   1.0 mph 89 % 0.00 in
03:31 44.7 °F 41.9 °F 30.33 in Calm     90 % 0.00 in
03:36 44.7 °F 41.9 °F 30.33 in Calm   1.2 mph 90 % 0.00 in
03:41 44.7 °F 41.9 °F 30.34 in Calm   1.0 mph 90 % 0.00 in
03:46 44.6 °F 41.9 °F 30.35 in Calm   1.0 mph 90 % 0.00 in
03:51 44.6 °F 41.8 °F 30.35 in WNW 1.0 mph 2.0 mph 90 % 0.00 in
03:56 44.6 °F 41.8 °F 30.35 in Calm   2.0 mph 90 % 0.00 in
04:01 44.6 °F 41.8 °F 30.35 in WNW 1.0 mph 3.0 mph 90 % 0.00 in
04:06 44.6 °F 41.8 °F 30.35 in WNW 0.1 mph 1.2 mph 90 % 0.00 in
04:11 44.6 °F 41.8 °F 30.35 in WNW 0.3 mph 1.2 mph 90 % 0.00 in
04:16 44.6 °F 41.8 °F 30.34 in WNW 0.3 mph 1.2 mph 90 % 0.00 in
04:21 44.6 °F 41.8 °F 30.35 in Calm     90 % 0.00 in
04:31 44.7 °F 42.2 °F 30.35 in NNE 1.8 mph 3.5 mph 91 % 0.00 in
04:36 45.4 °F 43.5 °F 30.35 in NNE 4.5 mph 8.1 mph 93 % 0.00 in
04:41 46.3 °F 44.9 °F 30.35 in NNE 4.1 mph 8.1 mph 95 % 0.00 in
04:46 46.9 °F 45.5 °F 30.36 in NE 2.0 mph 3.5 mph 95 % 0.00 in
04:52 47.3 °F 45.9 °F 30.36 in ENE 0.3 mph 4.6 mph 95 % 0.00 in
04:57 47.5 °F 46.1 °F 30.36 in ENE 1.0 mph 3.5 mph 95 % 0.00 in
05:02 47.6 °F 46.2 °F 30.36 in Calm     95 % 0.00 in
05:07 47.6 °F 46.0 °F 30.36 in East 2.8 mph 5.8 mph 94 % 0.00 in
05:12 47.7 °F 46.1 °F 30.36 in North 0.9 mph 3.5 mph 94 % 0.00 in
05:17 47.9 °F 46.3 °F 30.37 in NE 0.6 mph 3.5 mph 94 % 0.00 in
05:22 48.1 °F 46.5 °F 30.36 in Calm     94 % 0.00 in
05:27 48.1 °F 46.5 °F 30.37 in Calm     94 % 0.00 in
05:32 48.1 °F 46.2 °F 30.36 in NE 0.2 mph 2.3 mph 93 % 0.00 in
05:37 48.1 °F 45.9 °F 30.37 in ENE 0.5 mph 2.0 mph 92 % 0.00 in
05:43 48.0 °F 45.8 °F 30.37 in ENE 0.4 mph 2.0 mph 92 % 0.00 in
05:48 48.0 °F 45.5 °F 30.38 in Calm   1.2 mph 91 % 0.00 in
05:53 47.9 °F 45.4 °F 30.38 in Calm   1.2 mph 91 % 0.00 in
05:58 47.8 °F 45.3 °F 30.38 in Calm   2.3 mph 91 % 0.00 in
06:03 47.7 °F 44.9 °F 30.38 in ENE 0.6 mph 3.0 mph 90 % 0.00 in
06:08 47.6 °F 44.8 °F 30.38 in NE 4.4 mph 9.2 mph 90 % 0.00 in
06:13 47.8 °F 45.6 °F 30.38 in ENE 5.4 mph 7.0 mph 92 % 0.00 in
06:18 48.0 °F 45.8 °F 30.39 in ENE 4.4 mph 10.4 mph 92 % 0.00 in
06:23 48.2 °F 45.7 °F 30.39 in ENE 2.4 mph 3.5 mph 91 % 0.00 in
06:28 48.5 °F 45.7 °F 30.39 in ENE 4.2 mph 6.9 mph 90 % 0.00 in
06:34 48.7 °F 45.6 °F 30.39 in ENE 3.9 mph 8.1 mph 89 % 0.00 in
06:39 48.9 °F 45.5 °F 30.39 in ENE 4.3 mph 8.1 mph 88 % 0.00 in
06:44 49.1 °F 45.4 °F 30.39 in ENE 2.4 mph 4.6 mph 87 % 0.00 in
06:49 49.2 °F 45.5 °F 30.39 in ENE 4.2 mph 8.1 mph 87 % 0.00 in
06:54 49.4 °F 45.4 °F 30.39 in NE 2.4 mph 5.0 mph 86 % 0.00 in
06:59 49.5 °F 45.5 °F 30.39 in ENE 3.5 mph 5.0 mph 86 % 0.00 in
07:04 49.6 °F 45.6 °F 30.40 in NE 3.3 mph 4.6 mph 86 % 0.00 in
07:09 49.7 °F 45.4 °F 30.39 in ENE 5.1 mph 8.1 mph 85 % 0.00 in
07:14 49.8 °F 45.5 °F 30.40 in NE 2.9 mph 8.1 mph 85 % 0.00 in
07:19 49.8 °F 45.5 °F 30.40 in ENE 2.3 mph 8.1 mph 85 % 0.00 in
07:25 49.9 °F 45.6 °F 30.40 in East 4.6 mph 6.0 mph 85 % 0.00 in
07:30 49.9 °F 45.6 °F 30.40 in ENE 3.7 mph 8.1 mph 85 % 0.00 in
07:35 50.1 °F 45.8 °F 30.41 in ENE 3.3 mph 5.8 mph 85 % 0.00 in
07:40 50.3 °F 45.6 °F 30.41 in ENE 4.3 mph 9.2 mph 84 % 0.00 in
07:45 50.5 °F 45.8 °F 30.41 in ENE 6.4 mph 11.5 mph 84 % 0.00 in
07:50 50.7 °F 45.7 °F 30.41 in ENE 4.4 mph 6.9 mph 83 % 0.00 in
07:55 50.9 °F 45.9 °F 30.41 in ENE 6.2 mph 9.2 mph 83 % 0.00 in
08:00 51.0 °F 45.7 °F 30.42 in East 5.7 mph 9.0 mph 82 % 0.00 in
08:05 51.0 °F 45.4 °F 30.42 in ENE 6.0 mph 9.2 mph 81 % 0.00 in
08:11 51.1 °F 45.8 °F 30.42 in ENE 4.4 mph 7.0 mph 82 % 0.00 in
08:16 51.1 °F 45.5 °F 30.42 in ENE 5.0 mph 9.0 mph 81 % 0.00 in
08:21 51.2 °F 45.5 °F 30.43 in ENE 6.0 mph 9.0 mph 81 % 0.00 in
08:26 51.2 °F 45.6 °F 30.43 in ENE 3.3 mph 8.1 mph 81 % 0.00 in
08:31 51.4 °F 45.8 °F 30.43 in ENE 5.0 mph 9.0 mph 81 % 0.00 in
08:36 51.5 °F 45.8 °F 30.43 in ENE 3.0 mph 8.0 mph 81 % 0.00 in
08:41 51.6 °F 45.6 °F 30.43 in ENE 2.0 mph 10.0 mph 80 % 0.00 in
08:46 51.7 °F 45.7 °F 30.43 in ENE 5.0 mph 12.0 mph 80 % 0.00 in
08:51 51.8 °F 46.2 °F 30.42 in ENE 3.0 mph 8.0 mph 81 % 0.00 in
08:56 52.0 °F 46.3 °F 30.43 in ENE 3.9 mph 6.0 mph 81 % 0.00 in
09:01 52.2 °F 46.5 °F 30.43 in NE 2.6 mph 5.0 mph 81 % 0.00 in
09:06 52.5 °F 46.8 °F 30.43 in NE 3.1 mph 5.8 mph 81 % 0.00 in
09:11 52.8 °F 47.1 °F 30.43 in ENE 3.2 mph 7.0 mph 81 % 0.00 in
09:17 53.0 °F 47.3 °F 30.43 in ENE 3.6 mph 5.8 mph 81 % 0.00 in
09:22 53.2 °F 47.2 °F 30.43 in NE 2.6 mph 4.0 mph 80 % 0.00 in
09:27 53.5 °F 47.5 °F 30.43 in ENE 2.1 mph 10.4 mph 80 % 0.00 in
09:32 53.8 °F 48.1 °F 30.43 in ENE 1.3 mph 3.5 mph 81 % 0.00 in
09:37 54.2 °F 48.2 °F 30.42 in ENE 0.4 mph 1.2 mph 80 % 0.00 in
09:47 54.8 °F 47.7 °F 30.43 in NE 0.6 mph 3.0 mph 77 % 0.00 in
09:52 55.1 °F 48.4 °F 30.43 in ENE 1.7 mph 3.5 mph 78 % 0.00 in
09:57 55.5 °F 48.4 °F 30.43 in ENE 0.9 mph 1.2 mph 77 % 0.00 in
10:02 56.0 °F 48.9 °F 30.42 in ENE 1.6 mph 3.5 mph 77 % 0.00 in
10:07 56.6 °F 48.8 °F 30.42 in ENE 1.4 mph 4.6 mph 75 % 0.00 in
10:12 57.1 °F 48.9 °F 30.43 in ENE 2.8 mph 3.5 mph 74 % 0.00 in
10:17 57.4 °F 48.8 °F 30.43 in NE 3.0 mph 4.0 mph 73 % 0.00 in
10:23 57.6 °F 49.7 °F 30.43 in NE 0.9 mph 1.2 mph 75 % 0.00 in
10:28 57.8 °F 49.2 °F 30.43 in NE 1.6 mph 3.5 mph 73 % 0.00 in
10:33 57.9 °F 49.3 °F 30.43 in NE 0.4 mph 1.2 mph 73 % 0.00 in
10:38 57.9 °F 49.7 °F 30.42 in ENE 2.5 mph 5.8 mph 74 % 0.00 in
10:43 58.0 °F 49.8 °F 30.42 in ENE 3.0 mph 3.5 mph 74 % 0.00 in
10:48 57.8 °F 49.2 °F 30.42 in ENE 2.7 mph 3.5 mph 73 % 0.00 in
10:53 57.8 °F 49.2 °F 30.42 in NE 1.3 mph 4.6 mph 73 % 0.00 in
10:58 57.9 °F 49.7 °F 30.42 in ENE 2.6 mph 3.5 mph 74 % 0.00 in
11:03 58.0 °F 49.8 °F 30.42 in ENE 0.9 mph 3.5 mph 74 % 0.00 in
11:08 58.2 °F 50.0 °F 30.42 in ENE 0.4 mph 2.3 mph 74 % 0.00 in
11:14 58.3 °F 49.7 °F 30.42 in ENE 2.0 mph 3.5 mph 73 % 0.00 in
11:19 58.7 °F 50.4 °F 30.42 in ENE 2.0 mph 4.0 mph 74 % 0.00 in
11:24 59.4 °F 51.5 °F 30.42 in ENE 1.6 mph 3.5 mph 75 % 0.00 in
11:29 60.5 °F 52.2 °F 30.42 in ENE 1.6 mph 4.0 mph 74 % 0.00 in
11:34 61.6 °F 50.9 °F 30.42 in ENE 2.4 mph 3.5 mph 68 % 0.00 in
11:39 62.1 °F 51.0 °F 30.42 in ENE 3.1 mph 5.0 mph 67 % 0.00 in
11:44 62.3 °F 51.2 °F 30.42 in NE 2.9 mph 4.6 mph 67 % 0.00 in
11:49 62.3 °F 50.8 °F 30.42 in ENE 3.4 mph 5.8 mph 66 % 0.00 in
11:54 62.5 °F 51.8 °F 30.41 in NNE 2.0 mph 3.5 mph 68 % 0.00 in
11:59 63.2 °F 52.5 °F 30.41 in NE 1.5 mph 5.0 mph 68 % 0.00 in
12:05 63.7 °F 52.9 °F 30.41 in ENE 3.7 mph 5.0 mph 68 % 0.00 in
12:15 63.4 °F 52.7 °F 30.40 in NE 2.0 mph 8.1 mph 68 % 0.00 in
12:20 63.3 °F 51.7 °F 30.40 in ENE 3.4 mph 8.1 mph 66 % 0.00 in
12:25 63.1 °F 52.0 °F 30.40 in ENE 5.1 mph 8.1 mph 67 % 0.00 in
12:30 63.0 °F 51.9 °F 30.40 in East 4.0 mph 7.0 mph 67 % 0.00 in
12:35 62.9 °F 51.8 °F 30.40 in East 4.1 mph 7.0 mph 67 % 0.00 in
12:40 62.9 °F 51.8 °F 30.40 in ENE 3.7 mph 6.9 mph 67 % 0.00 in
12:45 62.9 °F 51.4 °F 30.40 in NE 4.0 mph 5.0 mph 66 % 0.00 in
12:50 62.7 °F 52.0 °F 30.40 in ENE 1.2 mph 6.9 mph 68 % 0.00 in
12:56 62.9 °F 52.5 °F 30.40 in ENE 1.0 mph 5.0 mph 69 % 0.00 in
13:00 63.3 °F 52.6 °F 30.39 in ENE 2.2 mph 5.0 mph 68 % 0.00 in
13:06 63.4 °F 52.7 °F 30.39 in NE 2.0 mph 7.0 mph 68 % 0.00 in
13:11 63.7 °F 53.3 °F 30.39 in NE 2.0 mph 7.0 mph 69 % 0.00 in
13:15 64.0 °F 52.8 °F 30.39 in ENE 1.2 mph 3.5 mph 67 % 0.00 in
13:21 64.2 °F 53.0 °F 30.39 in ENE 2.0 mph 7.0 mph 67 % 0.00 in
13:26 64.2 °F 52.2 °F 30.38 in ENE 5.0 mph 8.0 mph 65 % 0.00 in
13:30 64.1 °F 52.5 °F 30.38 in ENE 2.5 mph 5.8 mph 66 % 0.00 in
13:36 64.3 °F 52.7 °F 30.38 in NE 3.0 mph 8.0 mph 66 % 0.00 in
13:41 64.3 °F 52.3 °F 30.38 in NE 2.0 mph 6.0 mph 65 % 0.00 in
13:45 64.3 °F 52.7 °F 30.37 in North 1.8 mph 6.9 mph 66 % 0.00 in
13:51 64.1 °F 51.7 °F 30.37 in NE 2.0 mph 5.0 mph 64 % 0.00 in
13:56 64.1 °F 52.9 °F 30.37 in ENE 2.0 mph 9.0 mph 67 % 0.00 in
14:00 64.0 °F 52.0 °F 30.37 in ENE 1.9 mph 3.5 mph 65 % 0.00 in
14:06 64.1 °F 51.7 °F 30.37 in ENE 2.0 mph 7.0 mph 64 % 0.00 in
14:11 64.0 °F 52.0 °F 30.37 in NE 2.0 mph 5.0 mph 65 % 0.00 in
14:16 64.0 °F 51.1 °F 30.36 in NE 3.2 mph 4.0 mph 63 % 0.00 in
14:21 64.1 °F 52.5 °F 30.36 in NE 2.0 mph 5.0 mph 66 % 0.00 in
14:26 64.2 °F 52.2 °F 30.36 in NE 1.0 mph 4.0 mph 65 % 0.00 in
14:31 64.4 °F 52.0 °F 30.35 in ENE 1.0 mph 3.0 mph 64 % 0.00 in
14:36 64.5 °F 52.1 °F 30.35 in ENE 1.0 mph 4.0 mph 64 % 0.00 in
14:41 64.6 °F 52.1 °F 30.35 in NE 1.0 mph 4.0 mph 64 % 0.00 in
14:46 64.7 °F 52.2 °F 30.35 in ENE 2.0 mph 7.0 mph 64 % 0.00 in
14:51 64.7 °F 52.3 °F 30.34 in ENE 2.0 mph 5.0 mph 64 % 0.00 in
14:56 64.7 °F 51.4 °F 30.34 in ENE 2.0 mph 6.0 mph 62 % 0.00 in
15:01 64.5 °F 51.2 °F 30.34 in East 4.5 mph 7.0 mph 62 % 0.00 in
15:06 64.2 °F 50.5 °F 30.34 in NE 1.0 mph 7.0 mph 61 % 0.00 in
15:11 64.0 °F 51.1 °F 30.34 in ENE 2.0 mph 5.0 mph 63 % 0.00 in
15:16 63.8 °F 51.0 °F 30.34 in NE 2.8 mph 3.5 mph 63 % 0.00 in
15:21 63.6 °F 51.6 °F 30.34 in NE 2.0 mph 6.0 mph 65 % 0.00 in
15:26 63.4 °F 51.4 °F 30.34 in NNE 3.0 mph 8.0 mph 65 % 0.00 in
15:30 63.0 °F 51.9 °F 30.34 in NNE 2.0 mph 8.0 mph 67 % 0.00 in
15:36 62.8 °F 51.2 °F 30.34 in NE 2.0 mph 9.0 mph 66 % 0.00 in
15:41 62.5 °F 51.0 °F 30.34 in NE 3.0 mph 7.0 mph 66 % 0.00 in
15:46 62.3 °F 50.8 °F 30.34 in ENE 2.0 mph 5.0 mph 66 % 0.00 in
15:50 62.2 °F 51.1 °F 30.34 in NE 1.0 mph 5.0 mph 67 % 0.00 in
15:56 62.1 °F 51.4 °F 30.34 in NE 2.0 mph 7.0 mph 68 % 0.00 in
16:01 61.9 °F 51.6 °F 30.34 in NE 2.7 mph 3.5 mph 69 % 0.00 in
16:05 61.8 °F 51.1 °F 30.34 in ENE 2.0 mph 7.0 mph 68 % 0.00 in
16:11 61.7 °F 52.2 °F 30.34 in ENE 3.0 mph 5.0 mph 71 % 0.00 in
16:16 61.5 °F 51.6 °F 30.34 in ENE 1.0 mph 5.0 mph 70 % 0.00 in
16:21 61.4 °F 51.5 °F 30.34 in Calm   3.0 mph 70 % 0.00 in
16:26 61.4 °F 51.5 °F 30.34 in SE 3.0 mph 5.0 mph 70 % 0.00 in
16:31 61.4 °F 51.9 °F 30.34 in SE 1.0 mph 2.0 mph 71 % 0.00 in
16:36 61.2 °F 51.0 °F 30.33 in SE 2.0 mph 4.0 mph 69 % 0.00 in
16:40 61.2 °F 50.2 °F 30.33 in SE 1.0 mph 5.0 mph 67 % 0.00 in
16:46 61.2 °F 49.7 °F 30.33 in Calm   3.0 mph 66 % 0.00 in
16:51 61.1 °F 50.1 °F 30.33 in Calm   2.0 mph 67 % 0.00 in
16:55 61.2 °F 48.9 °F 30.33 in SE 5.0 mph 8.0 mph 64 % 0.00 in
17:01 61.2 °F 48.9 °F 30.33 in SE 1.0 mph 4.6 mph 64 % 0.00 in
17:06 61.1 °F 48.4 °F 30.33 in SE 3.0 mph 7.0 mph 63 % 0.00 in
17:10 61.1 °F 48.4 °F 30.33 in Calm   2.0 mph 63 % 0.00 in
17:16 61.0 °F 48.3 °F 30.33 in Calm   4.0 mph 63 % 0.00 in
17:20 60.9 °F 48.2 °F 30.33 in Calm   1.0 mph 63 % 0.00 in
17:26 60.8 °F 48.1 °F 30.33 in SE 1.0 mph 4.0 mph 63 % 0.00 in
17:30 60.7 °F 48.0 °F 30.33 in SE 1.0 mph 5.0 mph 63 % 0.00 in
17:35 60.6 °F 48.4 °F 30.33 in SE 0.5 mph 2.0 mph 64 % 0.00 in
17:40 60.4 °F 48.6 °F 30.33 in SE 1.0 mph 3.0 mph 65 % 0.00 in
17:45 60.2 °F 48.4 °F 30.33 in Calm   4.0 mph 65 % 0.00 in
17:50 60.0 °F 48.2 °F 30.33 in SSE 0.3 mph 2.0 mph 65 % 0.00 in
17:56 59.8 °F 48.4 °F 30.32 in Calm   3.0 mph 66 % 0.00 in
18:01 59.6 °F 48.2 °F 30.32 in SE 0.7 mph 1.2 mph 66 % 0.00 in
18:06 59.3 °F 47.9 °F 30.32 in SE 0.2 mph 1.2 mph 66 % 0.00 in
18:11 59.0 °F 48.1 °F 30.32 in SSE 0.4 mph 2.0 mph 67 % 0.00 in
18:16 58.8 °F 48.3 °F 30.32 in Calm   1.2 mph 68 % 0.00 in
18:21 58.6 °F 48.1 °F 30.32 in SSE 0.3 mph 1.2 mph 68 % 0.00 in
18:26 58.3 °F 48.2 °F 30.32 in Calm   1.2 mph 69 % 0.00 in
18:31 58.1 °F 48.4 °F 30.32 in Calm   1.2 mph 70 % 0.00 in
18:36 57.9 °F 48.2 °F 30.32 in Calm     70 % 0.00 in
18:41 57.6 °F 48.3 °F 30.32 in Calm     71 % 0.00 in
18:46 57.3 °F 48.0 °F 30.32 in Calm   1.2 mph 71 % 0.00 in
18:52 56.9 °F 48.0 °F 30.32 in Calm     72 % 0.00 in
18:57 56.6 °F 48.0 °F 30.32 in Calm   1.2 mph 73 % 0.00 in
19:02 56.2 °F 48.0 °F 30.32 in Calm     74 % 0.00 in
19:07 55.8 °F 47.6 °F 30.32 in Calm     74 % 0.00 in
19:12 55.5 °F 47.3 °F 30.32 in Calm     74 % 0.00 in
19:17 55.2 °F 47.4 °F 30.32 in Calm     75 % 0.00 in
19:22 54.9 °F 47.1 °F 30.32 in Calm     75 % 0.00 in
19:27 54.5 °F 47.1 °F 30.32 in Calm     76 % 0.00 in
19:32 54.3 °F 46.9 °F 30.32 in Calm     76 % 0.00 in
19:37 54.0 °F 47.0 °F 30.32 in Calm     77 % 0.00 in
19:43 53.7 °F 46.7 °F 30.32 in Calm     77 % 0.00 in
19:48 53.4 °F 46.7 °F 30.32 in Calm     78 % 0.00 in
19:53 53.1 °F 46.8 °F 30.32 in Calm     79 % 0.00 in
19:58 52.8 °F 46.5 °F 30.32 in Calm     79 % 0.00 in
20:03 52.6 °F 46.3 °F 30.32 in SSE 0.2 mph 1.2 mph 79 % 0.00 in
20:08 52.4 °F 46.1 °F 30.32 in Calm     79 % 0.00 in
20:13 52.3 °F 46.3 °F 30.32 in Calm     80 % 0.00 in
20:18 52.2 °F 46.2 °F 30.31 in Calm     80 % 0.00 in
20:23 52.1 °F 46.1 °F 30.32 in Calm     80 % 0.00 in
20:28 51.9 °F 45.9 °F 30.32 in Calm     80 % 0.00 in
20:34 51.8 °F 46.2 °F 30.32 in Calm     81 % 0.00 in
20:39 51.7 °F 46.1 °F 30.32 in Calm     81 % 0.00 in
20:44 51.6 °F 46.0 °F 30.31 in Calm     81 % 0.00 in
20:49 51.5 °F 45.9 °F 30.31 in Calm     81 % 0.00 in
20:54 51.4 °F 46.1 °F 30.31 in Calm     82 % 0.00 in
20:59 51.3 °F 45.7 °F 30.31 in Calm     81 % 0.00 in
21:09 51.1 °F 45.8 °F 30.31 in Calm     82 % 0.00 in
21:14 51.0 °F 45.7 °F 30.31 in Calm     82 % 0.00 in
21:19 50.8 °F 45.5 °F 30.31 in Calm     82 % 0.00 in
21:25 50.7 °F 45.4 °F 30.31 in Calm     82 % 0.00 in
21:30 50.6 °F 45.3 °F 30.31 in Calm     82 % 0.00 in
21:35 50.5 °F 45.5 °F 30.31 in Calm     83 % 0.00 in
21:40 50.4 °F 45.4 °F 30.31 in Calm     83 % 0.00 in
21:45 50.3 °F 45.6 °F 30.31 in Calm     84 % 0.00 in
21:50 50.1 °F 45.5 °F 30.31 in Calm     84 % 0.00 in
21:55 50.0 °F 45.4 °F 30.31 in Calm     84 % 0.00 in
22:00 49.9 °F 45.3 °F 30.30 in Calm     84 % 0.00 in
22:05 49.8 °F 45.5 °F 30.30 in Calm     85 % 0.00 in
22:10 49.7 °F 45.4 °F 30.30 in Calm     85 % 0.00 in
22:16 49.6 °F 45.3 °F 30.30 in Calm     85 % 0.00 in
22:21 49.4 °F 45.1 °F 30.30 in Calm     85 % 0.00 in
22:26 49.3 °F 45.0 °F 30.30 in Calm     85 % 0.00 in
22:31 49.2 °F 44.9 °F 30.30 in Calm     85 % 0.00 in
22:36 49.1 °F 44.8 °F 30.30 in Calm     85 % 0.00 in
22:41 49.0 °F 45.0 °F 30.30 in Calm     86 % 0.00 in
22:46 49.0 °F 45.0 °F 30.30 in Calm     86 % 0.00 in
22:51 48.9 °F 45.2 °F 30.30 in Calm     87 % 0.00 in
22:56 48.9 °F 45.2 °F 30.29 in Calm     87 % 0.00 in
23:01 48.9 °F 45.5 °F 30.29 in Calm     88 % 0.00 in
23:06 48.9 °F 45.8 °F 30.29 in SSE 0.1 mph 1.2 mph 89 % 0.00 in
23:11 48.9 °F 45.8 °F 30.29 in Calm     89 % 0.00 in
23:16 48.9 °F 46.1 °F 30.30 in Calm     90 % 0.00 in
23:21 48.9 °F 46.1 °F 30.30 in Calm     90 % 0.00 in
23:26 49.0 °F 46.2 °F 30.29 in Calm   1.2 mph 90 % 0.00 in
23:31 49.0 °F 46.2 °F 30.29 in SSE 0.2 mph 1.0 mph 90 % 0.00 in
23:36 49.0 °F 46.5 °F 30.29 in SSE 0.1 mph   91 % 0.00 in
23:41 49.0 °F 46.5 °F 30.29 in SSE 0.2 mph 1.2 mph 91 % 0.00 in
23:46 49.1 °F 46.6 °F 30.29 in Calm   1.2 mph 91 % 0.00 in
23:52 49.1 °F 46.6 °F 30.29 in SSE 0.3 mph 1.2 mph 91 % 0.00 in
23:57 49.1 °F 46.6 °F 30.29 in Calm   1.2 mph 91 % 0.00 in
Crab Meadow Weather
Compliments of Weather Underground - 3 mb

Script developed by  Jim McMurry - jmcmurry@mwt.net Adapted for the template by  Wim van der Kuil - Leuven-Template.eu

Recycling: In 2006, a record 53.4 percent of the paper consumed in the U.S. was recovered for recycling. Americans recovered an extraordinary 53.5 million tons, averaging 360 pounds per person.